LDDU Airport Information

Runway Information
Runway 12 Length 10827 ft width 148 ft
Elevation 519 ft Threshold 488 ft Heading 118
Runway 30 Length 10827 ft Width 148 ft
Elevation 484 ft Threshold 0 ft Heading 298
Airport Frequencies
Type APP Name APP Frequency 123.6 MHZ
Type TWR Name TWR Frequency 129.5 MHZ
Airport Navaids
Type NDB Name Dubrovnik Frequency 397 KHZ
Type VOR-DME Name Dubrovnik Frequency 115400 KHZ
Type NDB Name Dubrovnik Frequency 414 KHZ
Type NDB Name Kolocep Frequency 318 KHZ
Airport Weather Information & NOTAM
ADDS - METARS form results

(2008 UTC 16 July 2018)
 
METAR text: LDDU 162000Z 11004KT 060V140 CAVOK 24/18 Q1012 NOSIG
Conditions at: LDDU (DUBROVNIK-CILIPI, HR) observed 2000 UTC 16 July 2018
Temperature: 24.0°C (75°F)
Dewpoint: 18.0°C (64°F) [RH = 69%]
Pressure (altimeter): 29.88 inches Hg (1012.0 mb)
Winds: from the ESE (110 degrees) at 5 MPH (4 knots; 2.1 m/s)
Visibility: 6 or more miles (10+ km)
Ceiling: ceiling and visibility are OK
Clouds: unknown
Weather: no significant weather observed at this time

METAR text: LDDU 161930Z 15005KT 100V190 CAVOK 24/19 Q1012 NOSIG
Conditions at: LDDU (DUBROVNIK-CILIPI, HR) observed 1930 UTC 16 July 2018
Temperature: 24.0°C (75°F)
Dewpoint: 19.0°C (66°F) [RH = 74%]
Pressure (altimeter): 29.88 inches Hg (1012.0 mb)
Winds: from the SSE (150 degrees) at 6 MPH (5 knots; 2.6 m/s)
Visibility: 6 or more miles (10+ km)
Ceiling: ceiling and visibility are OK
Clouds: unknown
Weather: no significant weather observed at this time